sensor_id;sensor_type;location;lat;lon;timestamp;P1;durP1;ratioP1;P2;durP2;ratioP2
60086;SDS011;45960;53.630;55.972;2023-01-20T00:00:36;8.15;;;4.05;;
60086;SDS011;45960;53.630;55.972;2023-01-20T00:01:38;8.65;;;4.40;;
60086;SDS011;45960;53.630;55.972;2023-01-20T00:02:42;8.90;;;4.85;;
60086;SDS011;45960;53.630;55.972;2023-01-20T00:03:43;7.93;;;4.30;;
60086;SDS011;45960;53.630;55.972;2023-01-20T00:04:46;10.30;;;5.00;;
60086;SDS011;45960;53.630;55.972;2023-01-20T00:05:51;9.50;;;4.55;;
60086;SDS011;45960;53.630;55.972;2023-01-20T00:06:52;7.95;;;4.43;;
60086;SDS011;45960;53.630;55.972;2023-01-20T00:07:54;11.45;;;4.78;;
60086;SDS011;45960;53.630;55.972;2023-01-20T00:08:56;11.52;;;4.93;;
60086;SDS011;45960;53.630;55.972;2023-01-20T00:09:58;10.25;;;4.63;;
60086;SDS011;45960;53.630;55.972;2023-01-20T00:11:02;16.70;;;4.70;;
60086;SDS011;45960;53.630;55.972;2023-01-20T00:12:05;7.53;;;4.25;;
60086;SDS011;45960;53.630;55.972;2023-01-20T00:13:06;11.55;;;4.80;;
60086;SDS011;45960;53.630;55.972;2023-01-20T00:14:07;8.68;;;4.68;;
60086;SDS011;45960;53.630;55.972;2023-01-20T00:15:10;9.05;;;4.15;;
60086;SDS011;45960;53.630;55.972;2023-01-20T00:16:11;13.07;;;4.70;;
60086;SDS011;45960;53.630;55.972;2023-01-20T00:17:12;8.63;;;4.30;;
60086;SDS011;45960;53.630;55.972;2023-01-20T00:18:14;8.57;;;4.18;;
60086;SDS011;45960;53.630;55.972;2023-01-20T00:19:15;8.88;;;4.32;;
60086;SDS011;45960;53.630;55.972;2023-01-20T00:20:16;8.05;;;4.65;;
60086;SDS011;45960;53.630;55.972;2023-01-20T00:21:17;8.00;;;4.22;;
60086;SDS011;45960;53.630;55.972;2023-01-20T00:22:19;6.68;;;3.60;;
60086;SDS011;45960;53.630;55.972;2023-01-20T00:23:21;9.07;;;4.82;;
60086;SDS011;45960;53.630;55.972;2023-01-20T00:24:22;7.18;;;4.35;;
60086;SDS011;45960;53.630;55.972;2023-01-20T00:25:23;10.95;;;4.85;;
60086;SDS011;45960;53.630;55.972;2023-01-20T00:26:24;6.97;;;4.25;;
60086;SDS011;45960;53.630;55.972;2023-01-20T00:27:25;9.40;;;4.65;;
60086;SDS011;45960;53.630;55.972;2023-01-20T00:28:27;7.88;;;4.00;;
60086;SDS011;45960;53.630;55.972;2023-01-20T00:29:28;7.28;;;3.80;;
60086;SDS011;45960;53.630;55.972;2023-01-20T00:30:29;7.90;;;4.15;;
60086;SDS011;45960;53.630;55.972;2023-01-20T00:31:30;7.30;;;4.40;;
60086;SDS011;45960;53.630;55.972;2023-01-20T00:32:35;7.45;;;4.18;;
60086;SDS011;45960;53.630;55.972;2023-01-20T00:33:44;9.98;;;4.55;;
60086;SDS011;45960;53.630;55.972;2023-01-20T00:34:46;10.50;;;4.85;;
60086;SDS011;45960;53.630;55.972;2023-01-20T00:35:47;7.72;;;4.22;;
60086;SDS011;45960;53.630;55.972;2023-01-20T00:36:48;8.85;;;4.22;;
60086;SDS011;45960;53.630;55.972;2023-01-20T00:37:49;9.05;;;4.95;;
60086;SDS011;45960;53.630;55.972;2023-01-20T00:38:50;7.85;;;4.22;;
60086;SDS011;45960;53.630;55.972;2023-01-20T00:39:51;7.85;;;4.68;;
60086;SDS011;45960;53.630;55.972;2023-01-20T00:40:55;9.75;;;4.75;;
60086;SDS011;45960;53.630;55.972;2023-01-20T00:41:56;8.68;;;4.43;;
60086;SDS011;45960;53.630;55.972;2023-01-20T00:42:57;7.32;;;3.88;;
60086;SDS011;45960;53.630;55.972;2023-01-20T00:43:58;10.00;;;4.55;;
60086;SDS011;45960;53.630;55.972;2023-01-20T00:44:59;8.82;;;4.43;;
60086;SDS011;45960;53.630;55.972;2023-01-20T00:46:00;9.50;;;4.60;;
60086;SDS011;45960;53.630;55.972;2023-01-20T00:47:02;10.00;;;4.00;;
60086;SDS011;45960;53.630;55.972;2023-01-20T00:48:03;11.43;;;5.03;;
60086;SDS011;45960;53.630;55.972;2023-01-20T00:49:04;9.25;;;4.25;;
60086;SDS011;45960;53.630;55.972;2023-01-20T00:50:05;8.15;;;4.05;;
60086;SDS011;45960;53.630;55.972;2023-01-20T00:51:06;10.70;;;5.50;;
60086;SDS011;45960;53.630;55.972;2023-01-20T00:52:08;10.88;;;4.38;;
60086;SDS011;45960;53.630;55.972;2023-01-20T00:53:09;8.95;;;4.05;;
60086;SDS011;45960;53.630;55.972;2023-01-20T00:54:10;8.20;;;4.22;;
60086;SDS011;45960;53.630;55.972;2023-01-20T00:55:11;12.98;;;4.30;;
60086;SDS011;45960;53.630;55.972;2023-01-20T00:56:13;9.55;;;4.70;;
60086;SDS011;45960;53.630;55.972;2023-01-20T00:57:14;9.27;;;4.82;;
60086;SDS011;45960;53.630;55.972;2023-01-20T00:58:15;9.95;;;3.90;;
60086;SDS011;45960;53.630;55.972;2023-01-20T00:59:16;10.18;;;4.57;;
60086;SDS011;45960;53.630;55.972;2023-01-20T01:00:17;10.02;;;4.88;;
60086;SDS011;45960;53.630;55.972;2023-01-20T01:01:18;9.95;;;4.30;;
60086;SDS011;45960;53.630;55.972;2023-01-20T01:02:19;7.85;;;4.57;;
60086;SDS011;45960;53.630;55.972;2023-01-20T01:03:20;10.10;;;4.82;;
60086;SDS011;45960;53.630;55.972;2023-01-20T01:04:22;8.32;;;4.15;;
60086;SDS011;45960;53.630;55.972;2023-01-20T01:05:23;9.25;;;4.43;;
60086;SDS011;45960;53.630;55.972;2023-01-20T01:06:24;9.77;;;4.47;;
60086;SDS011;45960;53.630;55.972;2023-01-20T01:07:25;9.13;;;4.65;;
60086;SDS011;45960;53.630;55.972;2023-01-20T01:08:26;8.90;;;4.82;;
60086;SDS011;45960;53.630;55.972;2023-01-20T01:09:27;8.38;;;3.80;;
60086;SDS011;45960;53.630;55.972;2023-01-20T01:10:28;7.72;;;4.25;;
60086;SDS011;45960;53.630;55.972;2023-01-20T01:11:29;11.10;;;4.68;;
60086;SDS011;45960;53.630;55.972;2023-01-20T01:12:30;11.55;;;5.35;;
60086;SDS011;45960;53.630;55.972;2023-01-20T01:13:31;7.43;;;4.35;;
60086;SDS011;45960;53.630;55.972;2023-01-20T01:14:33;8.60;;;4.25;;
60086;SDS011;45960;53.630;55.972;2023-01-20T01:15:34;8.60;;;4.35;;
60086;SDS011;45960;53.630;55.972;2023-01-20T01:16:36;8.82;;;4.13;;
60086;SDS011;45960;53.630;55.972;2023-01-20T01:17:37;10.15;;;4.60;;
60086;SDS011;45960;53.630;55.972;2023-01-20T01:18:38;11.30;;;4.25;;
60086;SDS011;45960;53.630;55.972;2023-01-20T01:19:40;11.27;;;4.57;;
60086;SDS011;45960;53.630;55.972;2023-01-20T01:20:41;8.45;;;4.47;;
60086;SDS011;45960;53.630;55.972;2023-01-20T01:21:44;8.18;;;4.55;;
60086;SDS011;45960;53.630;55.972;2023-01-20T01:22:45;10.55;;;4.50;;
60086;SDS011;45960;53.630;55.972;2023-01-20T01:23:46;8.57;;;4.50;;
60086;SDS011;45960;53.630;55.972;2023-01-20T01:24:47;7.13;;;4.35;;
60086;SDS011;45960;53.630;55.972;2023-01-20T01:25:48;8.23;;;4.53;;
60086;SDS011;45960;53.630;55.972;2023-01-20T01:26:51;9.48;;;4.78;;
60086;SDS011;45960;53.630;55.972;2023-01-20T01:27:52;9.30;;;4.00;;
60086;SDS011;45960;53.630;55.972;2023-01-20T01:28:53;10.07;;;4.35;;
60086;SDS011;45960;53.630;55.972;2023-01-20T01:29:54;9.77;;;4.40;;
60086;SDS011;45960;53.630;55.972;2023-01-20T01:30:58;7.43;;;4.47;;
60086;SDS011;45960;53.630;55.972;2023-01-20T01:32:00;14.88;;;4.65;;
60086;SDS011;45960;53.630;55.972;2023-01-20T01:33:02;12.02;;;4.25;;
60086;SDS011;45960;53.630;55.972;2023-01-20T01:34:03;10.50;;;4.88;;
60086;SDS011;45960;53.630;55.972;2023-01-20T01:35:04;7.40;;;4.40;;
60086;SDS011;45960;53.630;55.972;2023-01-20T01:36:07;7.75;;;4.47;;
60086;SDS011;45960;53.630;55.972;2023-01-20T01:37:11;8.25;;;4.50;;
60086;SDS011;45960;53.630;55.972;2023-01-20T01:38:12;10.52;;;4.43;;
60086;SDS011;45960;53.630;55.972;2023-01-20T01:39:13;8.68;;;4.50;;
60086;SDS011;45960;53.630;55.972;2023-01-20T01:40:14;9.80;;;4.63;;
60086;SDS011;45960;53.630;55.972;2023-01-20T01:41:15;9.52;;;4.60;;
60086;SDS011;45960;53.630;55.972;2023-01-20T01:42:18;9.43;;;4.28;;
60086;SDS011;45960;53.630;55.972;2023-01-20T01:43:23;8.43;;;4.20;;
60086;SDS011;45960;53.630;55.972;2023-01-20T01:44:25;7.97;;;4.00;;
60086;SDS011;45960;53.630;55.972;2023-01-20T01:45:28;9.20;;;4.25;;
60086;SDS011;45960;53.630;55.972;2023-01-20T01:46:29;8.93;;;4.35;;
60086;SDS011;45960;53.630;55.972;2023-01-20T01:47:31;9.75;;;4.70;;
60086;SDS011;45960;53.630;55.972;2023-01-20T01:49:36;8.75;;;4.28;;
60086;SDS011;45960;53.630;55.972;2023-01-20T01:50:43;7.57;;;4.32;;
60086;SDS011;45960;53.630;55.972;2023-01-20T01:52:59;9.90;;;4.30;;
60086;SDS011;45960;53.630;55.972;2023-01-20T01:54:14;11.23;;;4.97;;
60086;SDS011;45960;53.630;55.972;2023-01-20T01:56:24;8.90;;;4.30;;
60086;SDS011;45960;53.630;55.972;2023-01-20T01:57:27;10.50;;;4.40;;
60086;SDS011;45960;53.630;55.972;2023-01-20T01:58:32;8.05;;;4.25;;
60086;SDS011;45960;53.630;55.972;2023-01-20T01:59:36;8.40;;;4.45;;
60086;SDS011;45960;53.630;55.972;2023-01-20T02:00:38;7.88;;;4.25;;
60086;SDS011;45960;53.630;55.972;2023-01-20T02:01:40;10.00;;;4.88;;
60086;SDS011;45960;53.630;55.972;2023-01-20T02:02:46;8.57;;;4.15;;
60086;SDS011;45960;53.630;55.972;2023-01-20T02:05:10;7.40;;;4.20;;
60086;SDS011;45960;53.630;55.972;2023-01-20T02:06:13;8.38;;;4.40;;
60086;SDS011;45960;53.630;55.972;2023-01-20T02:07:16;9.20;;;4.43;;
60086;SDS011;45960;53.630;55.972;2023-01-20T02:08:20;7.80;;;3.80;;
60086;SDS011;45960;53.630;55.972;2023-01-20T02:09:22;8.13;;;3.90;;
60086;SDS011;45960;53.630;55.972;2023-01-20T02:10:24;11.32;;;4.20;;
60086;SDS011;45960;53.630;55.972;2023-01-20T02:11:26;9.52;;;4.55;;
60086;SDS011;45960;53.630;55.972;2023-01-20T02:12:34;11.85;;;4.75;;
60086;SDS011;45960;53.630;55.972;2023-01-20T02:13:35;8.07;;;4.60;;
60086;SDS011;45960;53.630;55.972;2023-01-20T02:14:37;8.15;;;4.40;;
60086;SDS011;45960;53.630;55.972;2023-01-20T02:18:46;7.45;;;4.13;;
60086;SDS011;45960;53.630;55.972;2023-01-20T02:21:47;8.82;;;4.57;;
60086;SDS011;45960;53.630;55.972;2023-01-20T02:27:11;7.40;;;4.18;;
60086;SDS011;45960;53.630;55.972;2023-01-20T02:31:47;7.73;;;3.60;;
60086;SDS011;45960;53.630;55.972;2023-01-20T02:32:55;9.93;;;4.82;;
60086;SDS011;45960;53.630;55.972;2023-01-20T02:34:01;6.90;;;4.13;;
60086;SDS011;45960;53.630;55.972;2023-01-20T02:36:12;10.73;;;4.13;;
60086;SDS011;45960;53.630;55.972;2023-01-20T02:37:27;8.65;;;4.50;;
60086;SDS011;45960;53.630;55.972;2023-01-20T02:39:48;11.20;;;4.90;;
60086;SDS011;45960;53.630;55.972;2023-01-20T02:43:00;8.77;;;4.50;;
60086;SDS011;45960;53.630;55.972;2023-01-20T02:44:32;10.07;;;4.30;;
60086;SDS011;45960;53.630;55.972;2023-01-20T02:45:55;8.02;;;4.18;;
60086;SDS011;45960;53.630;55.972;2023-01-20T02:47:02;12.10;;;4.22;;
60086;SDS011;45960;53.630;55.972;2023-01-20T02:48:21;7.55;;;3.88;;
60086;SDS011;45960;53.630;55.972;2023-01-20T02:49:47;9.60;;;3.90;;
60086;SDS011;45960;53.630;55.972;2023-01-20T02:52:09;8.07;;;3.95;;
60086;SDS011;45960;53.630;55.972;2023-01-20T02:53:14;9.88;;;4.00;;
60086;SDS011;45960;53.630;55.972;2023-01-20T02:54:17;7.22;;;4.22;;
60086;SDS011;45960;53.630;55.972;2023-01-20T02:55:25;7.78;;;3.58;;
60086;SDS011;45960;53.630;55.972;2023-01-20T02:56:34;10.50;;;4.50;;
60086;SDS011;45960;53.630;55.972;2023-01-20T02:57:38;9.63;;;4.05;;
60086;SDS011;45960;53.630;55.972;2023-01-20T03:00:16;10.02;;;4.25;;
60086;SDS011;45960;53.630;55.972;2023-01-20T03:01:32;9.82;;;3.85;;
60086;SDS011;45960;53.630;55.972;2023-01-20T03:02:39;10.77;;;3.80;;
60086;SDS011;45960;53.630;55.972;2023-01-20T03:03:44;7.32;;;4.03;;
60086;SDS011;45960;53.630;55.972;2023-01-20T03:04:54;9.82;;;3.70;;
60086;SDS011;45960;53.630;55.972;2023-01-20T03:06:01;7.18;;;4.22;;
60086;SDS011;45960;53.630;55.972;2023-01-20T03:07:06;6.60;;;3.97;;
60086;SDS011;45960;53.630;55.972;2023-01-20T03:08:09;6.78;;;3.75;;
60086;SDS011;45960;53.630;55.972;2023-01-20T03:09:14;7.97;;;3.95;;
60086;SDS011;45960;53.630;55.972;2023-01-20T03:10:21;14.75;;;4.32;;
60086;SDS011;45960;53.630;55.972;2023-01-20T03:11:24;7.07;;;3.42;;
60086;SDS011;45960;53.630;55.972;2023-01-20T03:12:32;7.85;;;4.00;;
60086;SDS011;45960;53.630;55.972;2023-01-20T03:13:48;7.88;;;4.07;;
60086;SDS011;45960;53.630;55.972;2023-01-20T03:14:54;8.57;;;3.90;;
60086;SDS011;45960;53.630;55.972;2023-01-20T03:16:00;9.30;;;3.85;;
60086;SDS011;45960;53.630;55.972;2023-01-20T03:17:04;10.70;;;3.10;;
60086;SDS011;45960;53.630;55.972;2023-01-20T03:18:05;6.35;;;3.90;;
60086;SDS011;45960;53.630;55.972;2023-01-20T03:19:06;10.40;;;4.35;;
60086;SDS011;45960;53.630;55.972;2023-01-20T03:20:08;8.40;;;4.00;;
60086;SDS011;45960;53.630;55.972;2023-01-20T03:21:09;7.07;;;3.95;;
60086;SDS011;45960;53.630;55.972;2023-01-20T03:22:11;9.38;;;4.43;;
60086;SDS011;45960;53.630;55.972;2023-01-20T03:23:13;9.13;;;4.13;;
60086;SDS011;45960;53.630;55.972;2023-01-20T03:24:14;7.57;;;3.88;;
60086;SDS011;45960;53.630;55.972;2023-01-20T03:25:15;7.45;;;4.20;;
60086;SDS011;45960;53.630;55.972;2023-01-20T03:26:19;11.10;;;3.67;;
60086;SDS011;45960;53.630;55.972;2023-01-20T03:27:22;9.05;;;3.90;;
60086;SDS011;45960;53.630;55.972;2023-01-20T03:28:23;5.75;;;3.33;;
60086;SDS011;45960;53.630;55.972;2023-01-20T03:29:25;7.95;;;3.63;;
60086;SDS011;45960;53.630;55.972;2023-01-20T03:30:26;10.23;;;4.22;;
60086;SDS011;45960;53.630;55.972;2023-01-20T03:31:28;7.47;;;3.85;;
60086;SDS011;45960;53.630;55.972;2023-01-20T03:32:34;8.23;;;4.75;;
60086;SDS011;45960;53.630;55.972;2023-01-20T03:33:35;15.25;;;4.28;;
60086;SDS011;45960;53.630;55.972;2023-01-20T03:34:37;10.38;;;3.85;;
60086;SDS011;45960;53.630;55.972;2023-01-20T03:35:41;14.50;;;3.78;;
60086;SDS011;45960;53.630;55.972;2023-01-20T03:36:43;10.73;;;4.10;;
60086;SDS011;45960;53.630;55.972;2023-01-20T03:37:45;11.80;;;4.13;;
60086;SDS011;45960;53.630;55.972;2023-01-20T03:38:47;178.57;;;49.72;;
60086;SDS011;45960;53.630;55.972;2023-01-20T03:39:49;136.80;;;41.47;;
60086;SDS011;45960;53.630;55.972;2023-01-20T03:41:05;122.15;;;35.85;;
60086;SDS011;45960;53.630;55.972;2023-01-20T03:43:43;82.55;;;27.85;;
60086;SDS011;45960;53.630;55.972;2023-01-20T03:46:26;56.30;;;19.05;;
60086;SDS011;45960;53.630;55.972;2023-01-20T03:49:01;43.85;;;15.85;;
60086;SDS011;45960;53.630;55.972;2023-01-20T03:54:22;34.08;;;11.90;;
60086;SDS011;45960;53.630;55.972;2023-01-20T03:55:37;30.92;;;10.73;;
60086;SDS011;45960;53.630;55.972;2023-01-20T03:57:07;25.60;;;9.45;;
60086;SDS011;45960;53.630;55.972;2023-01-20T03:58:32;26.27;;;9.60;;
60086;SDS011;45960;53.630;55.972;2023-01-20T03:59:37;34.00;;;10.43;;
60086;SDS011;45960;53.630;55.972;2023-01-20T04:00:42;21.83;;;8.60;;
60086;SDS011;45960;53.630;55.972;2023-01-20T04:01:45;18.30;;;8.45;;
60086;SDS011;45960;53.630;55.972;2023-01-20T04:02:48;21.65;;;8.38;;
60086;SDS011;45960;53.630;55.972;2023-01-20T04:03:51;19.02;;;7.47;;
60086;SDS011;45960;53.630;55.972;2023-01-20T04:04:54;21.17;;;8.63;;
60086;SDS011;45960;53.630;55.972;2023-01-20T04:05:57;21.30;;;8.10;;
60086;SDS011;45960;53.630;55.972;2023-01-20T04:07:05;19.10;;;8.18;;
60086;SDS011;45960;53.630;55.972;2023-01-20T04:08:11;18.80;;;7.75;;
60086;SDS011;45960;53.630;55.972;2023-01-20T04:09:22;20.17;;;8.27;;
60086;SDS011;45960;53.630;55.972;2023-01-20T04:10:26;21.55;;;7.75;;
60086;SDS011;45960;53.630;55.972;2023-01-20T04:11:30;22.15;;;8.23;;
60086;SDS011;45960;53.630;55.972;2023-01-20T04:12:31;14.75;;;7.13;;
60086;SDS011;45960;53.630;55.972;2023-01-20T04:13:32;14.80;;;7.30;;
60086;SDS011;45960;53.630;55.972;2023-01-20T04:14:34;17.30;;;7.38;;
60086;SDS011;45960;53.630;55.972;2023-01-20T04:15:37;14.18;;;7.32;;
60086;SDS011;45960;53.630;55.972;2023-01-20T04:16:54;22.80;;;8.05;;
60086;SDS011;45960;53.630;55.972;2023-01-20T04:18:08;15.32;;;8.32;;
60086;SDS011;45960;53.630;55.972;2023-01-20T04:19:12;13.25;;;6.90;;
60086;SDS011;45960;53.630;55.972;2023-01-20T04:20:13;18.02;;;8.13;;
60086;SDS011;45960;53.630;55.972;2023-01-20T04:21:18;14.93;;;7.20;;
60086;SDS011;45960;53.630;55.972;2023-01-20T04:22:33;14.82;;;6.95;;
60086;SDS011;45960;53.630;55.972;2023-01-20T04:23:41;14.07;;;7.22;;
60086;SDS011;45960;53.630;55.972;2023-01-20T04:24:50;14.48;;;7.07;;
60086;SDS011;45960;53.630;55.972;2023-01-20T04:25:56;12.85;;;7.20;;
60086;SDS011;45960;53.630;55.972;2023-01-20T04:26:57;13.43;;;7.30;;
60086;SDS011;45960;53.630;55.972;2023-01-20T04:27:58;13.05;;;6.50;;
60086;SDS011;45960;53.630;55.972;2023-01-20T04:29:00;13.88;;;6.32;;
60086;SDS011;45960;53.630;55.972;2023-01-20T04:30:08;13.15;;;6.88;;
60086;SDS011;45960;53.630;55.972;2023-01-20T04:31:09;10.18;;;5.68;;
60086;SDS011;45960;53.630;55.972;2023-01-20T04:32:11;11.60;;;6.18;;
60086;SDS011;45960;53.630;55.972;2023-01-20T04:33:12;16.65;;;6.07;;
60086;SDS011;45960;53.630;55.972;2023-01-20T04:34:13;12.40;;;5.85;;
60086;SDS011;45960;53.630;55.972;2023-01-20T04:35:18;14.75;;;5.63;;
60086;SDS011;45960;53.630;55.972;2023-01-20T04:36:19;13.63;;;6.75;;
60086;SDS011;45960;53.630;55.972;2023-01-20T04:37:20;11.43;;;5.75;;
60086;SDS011;45960;53.630;55.972;2023-01-20T04:38:21;11.25;;;6.13;;
60086;SDS011;45960;53.630;55.972;2023-01-20T04:39:22;12.27;;;5.65;;
60086;SDS011;45960;53.630;55.972;2023-01-20T04:40:23;10.30;;;5.70;;
60086;SDS011;45960;53.630;55.972;2023-01-20T04:41:25;11.20;;;5.82;;
60086;SDS011;45960;53.630;55.972;2023-01-20T04:42:26;11.52;;;5.80;;
60086;SDS011;45960;53.630;55.972;2023-01-20T04:43:27;10.02;;;5.40;;
60086;SDS011;45960;53.630;55.972;2023-01-20T04:44:28;13.30;;;6.38;;
60086;SDS011;45960;53.630;55.972;2023-01-20T04:45:29;9.15;;;5.15;;
60086;SDS011;45960;53.630;55.972;2023-01-20T04:46:30;13.18;;;5.53;;
60086;SDS011;45960;53.630;55.972;2023-01-20T04:47:31;11.95;;;6.25;;
60086;SDS011;45960;53.630;55.972;2023-01-20T04:48:33;9.50;;;5.45;;
60086;SDS011;45960;53.630;55.972;2023-01-20T04:49:34;15.15;;;5.43;;
60086;SDS011;45960;53.630;55.972;2023-01-20T04:50:39;12.00;;;5.40;;
60086;SDS011;45960;53.630;55.972;2023-01-20T04:51:40;12.68;;;5.80;;
60086;SDS011;45960;53.630;55.972;2023-01-20T04:52:42;13.85;;;5.45;;
60086;SDS011;45960;53.630;55.972;2023-01-20T04:53:43;9.07;;;5.05;;
60086;SDS011;45960;53.630;55.972;2023-01-20T04:54:44;10.95;;;5.28;;
60086;SDS011;45960;53.630;55.972;2023-01-20T04:55:45;16.95;;;6.38;;
60086;SDS011;45960;53.630;55.972;2023-01-20T04:56:47;14.82;;;5.47;;
60086;SDS011;45960;53.630;55.972;2023-01-20T04:57:48;16.13;;;5.97;;
60086;SDS011;45960;53.630;55.972;2023-01-20T04:58:49;14.13;;;6.38;;
60086;SDS011;45960;53.630;55.972;2023-01-20T04:59:51;13.35;;;6.35;;
60086;SDS011;45960;53.630;55.972;2023-01-20T05:00:52;14.38;;;6.57;;
60086;SDS011;45960;53.630;55.972;2023-01-20T05:01:53;17.50;;;7.32;;
60086;SDS011;45960;53.630;55.972;2023-01-20T05:02:56;13.68;;;7.68;;
60086;SDS011;45960;53.630;55.972;2023-01-20T05:03:58;13.18;;;7.85;;
60086;SDS011;45960;53.630;55.972;2023-01-20T05:05:00;19.48;;;8.40;;
60086;SDS011;45960;53.630;55.972;2023-01-20T05:06:03;14.57;;;7.38;;
60086;SDS011;45960;53.630;55.972;2023-01-20T05:07:05;15.82;;;7.22;;
60086;SDS011;45960;53.630;55.972;2023-01-20T05:08:06;15.82;;;7.93;;
60086;SDS011;45960;53.630;55.972;2023-01-20T05:09:11;14.85;;;7.63;;
60086;SDS011;45960;53.630;55.972;2023-01-20T05:10:13;17.17;;;7.90;;
60086;SDS011;45960;53.630;55.972;2023-01-20T05:11:14;19.63;;;8.70;;
60086;SDS011;45960;53.630;55.972;2023-01-20T05:12:15;18.10;;;8.65;;
60086;SDS011;45960;53.630;55.972;2023-01-20T05:13:16;17.45;;;9.00;;
60086;SDS011;45960;53.630;55.972;2023-01-20T05:14:17;18.38;;;8.85;;
60086;SDS011;45960;53.630;55.972;2023-01-20T05:15:18;22.10;;;8.48;;
60086;SDS011;45960;53.630;55.972;2023-01-20T05:16:19;17.52;;;8.57;;
60086;SDS011;45960;53.630;55.972;2023-01-20T05:17:24;18.38;;;8.02;;
60086;SDS011;45960;53.630;55.972;2023-01-20T05:18:26;15.00;;;7.85;;
60086;SDS011;45960;53.630;55.972;2023-01-20T05:19:28;13.38;;;8.18;;
60086;SDS011;45960;53.630;55.972;2023-01-20T05:20:29;22.42;;;8.80;;
60086;SDS011;45960;53.630;55.972;2023-01-20T05:21:30;13.25;;;6.95;;
60086;SDS011;45960;53.630;55.972;2023-01-20T05:22:31;14.10;;;7.70;;
60086;SDS011;45960;53.630;55.972;2023-01-20T05:23:34;18.45;;;9.02;;
60086;SDS011;45960;53.630;55.972;2023-01-20T05:24:35;15.98;;;8.20;;
60086;SDS011;45960;53.630;55.972;2023-01-20T05:25:37;17.45;;;8.35;;
60086;SDS011;45960;53.630;55.972;2023-01-20T05:26:38;15.85;;;8.00;;
60086;SDS011;45960;53.630;55.972;2023-01-20T05:27:39;14.48;;;7.75;;
60086;SDS011;45960;53.630;55.972;2023-01-20T05:28:41;14.82;;;8.10;;
60086;SDS011;45960;53.630;55.972;2023-01-20T05:29:42;17.90;;;7.45;;
60086;SDS011;45960;53.630;55.972;2023-01-20T05:30:43;12.48;;;6.85;;
60086;SDS011;45960;53.630;55.972;2023-01-20T05:31:45;14.20;;;7.18;;
60086;SDS011;45960;53.630;55.972;2023-01-20T05:32:49;18.38;;;8.60;;
60086;SDS011;45960;53.630;55.972;2023-01-20T05:33:51;12.90;;;7.03;;
60086;SDS011;45960;53.630;55.972;2023-01-20T05:34:52;10.60;;;7.05;;
60086;SDS011;45960;53.630;55.972;2023-01-20T05:35:53;12.15;;;7.22;;
60086;SDS011;45960;53.630;55.972;2023-01-20T05:36:54;16.67;;;7.85;;
60086;SDS011;45960;53.630;55.972;2023-01-20T05:37:55;13.45;;;7.03;;
60086;SDS011;45960;53.630;55.972;2023-01-20T05:38:56;14.27;;;7.03;;
60086;SDS011;45960;53.630;55.972;2023-01-20T05:39:57;11.40;;;7.25;;
60086;SDS011;45960;53.630;55.972;2023-01-20T05:41:01;14.65;;;6.70;;
60086;SDS011;45960;53.630;55.972;2023-01-20T05:42:04;17.45;;;6.90;;
60086;SDS011;45960;53.630;55.972;2023-01-20T05:43:05;10.55;;;6.38;;
60086;SDS011;45960;53.630;55.972;2023-01-20T05:44:06;16.33;;;6.97;;
60086;SDS011;45960;53.630;55.972;2023-01-20T05:45:08;15.88;;;7.50;;
60086;SDS011;45960;53.630;55.972;2023-01-20T05:46:09;10.95;;;6.63;;
60086;SDS011;45960;53.630;55.972;2023-01-20T05:47:11;10.85;;;6.60;;
60086;SDS011;45960;53.630;55.972;2023-01-20T05:48:12;11.07;;;6.38;;
60086;SDS011;45960;53.630;55.972;2023-01-20T05:49:13;12.75;;;6.88;;
60086;SDS011;45960;53.630;55.972;2023-01-20T05:50:14;9.60;;;6.03;;
60086;SDS011;45960;53.630;55.972;2023-01-20T05:51:15;12.77;;;6.93;;
60086;SDS011;45960;53.630;55.972;2023-01-20T05:52:16;11.98;;;6.32;;
60086;SDS011;45960;53.630;55.972;2023-01-20T05:53:17;12.00;;;6.80;;
60086;SDS011;45960;53.630;55.972;2023-01-20T05:54:19;12.60;;;6.60;;
60086;SDS011;45960;53.630;55.972;2023-01-20T05:55:21;16.45;;;6.65;;
60086;SDS011;45960;53.630;55.972;2023-01-20T05:56:22;12.93;;;6.45;;
60086;SDS011;45960;53.630;55.972;2023-01-20T05:57:24;14.57;;;6.38;;
60086;SDS011;45960;53.630;55.972;2023-01-20T05:58:25;9.65;;;6.13;;
60086;SDS011;45960;53.630;55.972;2023-01-20T05:59:26;12.20;;;6.63;;
60086;SDS011;45960;53.630;55.972;2023-01-20T06:00:27;12.05;;;5.80;;
60086;SDS011;45960;53.630;55.972;2023-01-20T06:01:29;10.65;;;6.35;;
60086;SDS011;45960;53.630;55.972;2023-01-20T06:02:30;13.75;;;6.28;;
60086;SDS011;45960;53.630;55.972;2023-01-20T06:03:31;14.13;;;6.75;;
60086;SDS011;45960;53.630;55.972;2023-01-20T06:04:32;12.50;;;6.75;;
60086;SDS011;45960;53.630;55.972;2023-01-20T06:05:33;12.52;;;6.68;;
60086;SDS011;45960;53.630;55.972;2023-01-20T06:06:34;11.52;;;5.82;;
60086;SDS011;45960;53.630;55.972;2023-01-20T06:07:36;12.18;;;6.65;;
60086;SDS011;45960;53.630;55.972;2023-01-20T06:08:37;11.07;;;6.00;;
60086;SDS011;45960;53.630;55.972;2023-01-20T06:09:38;12.18;;;6.70;;
60086;SDS011;45960;53.630;55.972;2023-01-20T06:10:39;15.48;;;6.95;;
60086;SDS011;45960;53.630;55.972;2023-01-20T06:11:40;11.80;;;6.80;;
60086;SDS011;45960;53.630;55.972;2023-01-20T06:12:41;11.85;;;6.60;;
60086;SDS011;45960;53.630;55.972;2023-01-20T06:13:42;12.00;;;6.35;;
60086;SDS011;45960;53.630;55.972;2023-01-20T06:14:45;12.88;;;7.22;;
60086;SDS011;45960;53.630;55.972;2023-01-20T06:15:50;12.13;;;7.03;;
60086;SDS011;45960;53.630;55.972;2023-01-20T06:16:52;13.70;;;7.25;;
60086;SDS011;45960;53.630;55.972;2023-01-20T06:17:53;11.77;;;6.63;;
60086;SDS011;45960;53.630;55.972;2023-01-20T06:18:55;11.88;;;7.28;;
60086;SDS011;45960;53.630;55.972;2023-01-20T06:19:57;12.82;;;6.30;;
60086;SDS011;45960;53.630;55.972;2023-01-20T06:20:59;13.23;;;8.38;;
60086;SDS011;45960;53.630;55.972;2023-01-20T06:22:00;14.18;;;6.88;;
60086;SDS011;45960;53.630;55.972;2023-01-20T06:23:02;10.73;;;6.43;;
60086;SDS011;45960;53.630;55.972;2023-01-20T06:24:03;15.57;;;7.85;;
60086;SDS011;45960;53.630;55.972;2023-01-20T06:25:04;13.80;;;6.95;;
60086;SDS011;45960;53.630;55.972;2023-01-20T06:26:07;13.35;;;7.13;;
60086;SDS011;45960;53.630;55.972;2023-01-20T06:27:10;14.05;;;7.78;;
60086;SDS011;45960;53.630;55.972;2023-01-20T06:28:11;14.40;;;7.82;;
60086;SDS011;45960;53.630;55.972;2023-01-20T06:29:12;11.00;;;6.65;;
60086;SDS011;45960;53.630;55.972;2023-01-20T06:30:13;11.10;;;6.57;;
60086;SDS011;45960;53.630;55.972;2023-01-20T06:31:15;14.32;;;7.40;;
60086;SDS011;45960;53.630;55.972;2023-01-20T06:32:16;16.02;;;7.55;;
60086;SDS011;45960;53.630;55.972;2023-01-20T06:33:17;14.60;;;7.03;;
60086;SDS011;45960;53.630;55.972;2023-01-20T06:34:18;12.75;;;7.15;;
60086;SDS011;45960;53.630;55.972;2023-01-20T06:35:19;17.77;;;7.40;;
60086;SDS011;45960;53.630;55.972;2023-01-20T06:36:21;11.57;;;6.72;;
60086;SDS011;45960;53.630;55.972;2023-01-20T06:37:22;19.52;;;9.70;;
60086;SDS011;45960;53.630;55.972;2023-01-20T06:38:23;19.55;;;9.55;;
60086;SDS011;45960;53.630;55.972;2023-01-20T06:39:26;22.70;;;10.88;;
60086;SDS011;45960;53.630;55.972;2023-01-20T06:40:27;25.73;;;12.43;;
60086;SDS011;45960;53.630;55.972;2023-01-20T06:41:28;22.52;;;11.85;;
60086;SDS011;45960;53.630;55.972;2023-01-20T06:42:29;29.77;;;11.45;;
60086;SDS011;45960;53.630;55.972;2023-01-20T06:43:31;28.83;;;12.77;;
60086;SDS011;45960;53.630;55.972;2023-01-20T06:44:34;23.48;;;12.20;;